sensor_id;sensor_type;location;lat;lon;timestamp;P1;durP1;ratioP1;P2;durP2;ratioP2
3689;SDS011;1861;50.240;8.596;2023-06-22T00:00:35;5.07;;;3.83;;
3689;SDS011;1861;50.240;8.596;2023-06-22T00:03:03;5.53;;;4.18;;
3689;SDS011;1861;50.240;8.596;2023-06-22T00:05:31;7.78;;;5.03;;
3689;SDS011;1861;50.240;8.596;2023-06-22T00:08:02;5.30;;;4.60;;
3689;SDS011;1861;50.240;8.596;2023-06-22T00:10:33;7.45;;;5.10;;
3689;SDS011;1861;50.240;8.596;2023-06-22T00:13:01;8.57;;;5.25;;
3689;SDS011;1861;50.240;8.596;2023-06-22T00:15:30;8.27;;;5.90;;
3689;SDS011;1861;50.240;8.596;2023-06-22T00:18:12;9.82;;;4.15;;
3689;SDS011;1861;50.240;8.596;2023-06-22T00:20:41;7.50;;;4.75;;
3689;SDS011;1861;50.240;8.596;2023-06-22T00:23:12;5.82;;;4.82;;
3689;SDS011;1861;50.240;8.596;2023-06-22T00:25:43;6.40;;;4.88;;
3689;SDS011;1861;50.240;8.596;2023-06-22T00:28:11;6.22;;;4.75;;
3689;SDS011;1861;50.240;8.596;2023-06-22T00:30:40;7.72;;;4.22;;
3689;SDS011;1861;50.240;8.596;2023-06-22T00:33:08;7.13;;;4.72;;
3689;SDS011;1861;50.240;8.596;2023-06-22T00:35:36;5.32;;;4.63;;
3689;SDS011;1861;50.240;8.596;2023-06-22T00:38:08;5.63;;;4.53;;
3689;SDS011;1861;50.240;8.596;2023-06-22T00:40:36;8.60;;;4.82;;
3689;SDS011;1861;50.240;8.596;2023-06-22T00:43:06;7.70;;;5.32;;
3689;SDS011;1861;50.240;8.596;2023-06-22T00:45:34;7.70;;;4.57;;
3689;SDS011;1861;50.240;8.596;2023-06-22T00:48:03;5.93;;;4.88;;
3689;SDS011;1861;50.240;8.596;2023-06-22T00:50:32;7.30;;;5.20;;
3689;SDS011;1861;50.240;8.596;2023-06-22T00:53:02;5.75;;;4.70;;
3689;SDS011;1861;50.240;8.596;2023-06-22T00:55:35;10.00;;;5.57;;
3689;SDS011;1861;50.240;8.596;2023-06-22T00:58:07;6.93;;;4.85;;
3689;SDS011;1861;50.240;8.596;2023-06-22T01:00:37;7.55;;;5.18;;
3689;SDS011;1861;50.240;8.596;2023-06-22T01:03:07;6.85;;;5.25;;
3689;SDS011;1861;50.240;8.596;2023-06-22T01:05:37;7.15;;;4.30;;
3689;SDS011;1861;50.240;8.596;2023-06-22T01:08:12;8.02;;;4.57;;
3689;SDS011;1861;50.240;8.596;2023-06-22T01:10:47;7.28;;;4.70;;
3689;SDS011;1861;50.240;8.596;2023-06-22T01:13:24;7.07;;;5.72;;
3689;SDS011;1861;50.240;8.596;2023-06-22T01:15:57;10.65;;;5.07;;
3689;SDS011;1861;50.240;8.596;2023-06-22T01:18:29;6.13;;;4.95;;
3689;SDS011;1861;50.240;8.596;2023-06-22T01:21:00;7.25;;;5.18;;
3689;SDS011;1861;50.240;8.596;2023-06-22T01:23:31;8.52;;;5.38;;
3689;SDS011;1861;50.240;8.596;2023-06-22T01:26:17;6.18;;;5.18;;
3689;SDS011;1861;50.240;8.596;2023-06-22T01:28:48;7.03;;;5.13;;
3689;SDS011;1861;50.240;8.596;2023-06-22T01:31:19;6.57;;;5.53;;
3689;SDS011;1861;50.240;8.596;2023-06-22T01:33:50;8.52;;;5.80;;
3689;SDS011;1861;50.240;8.596;2023-06-22T01:36:21;10.52;;;5.70;;
3689;SDS011;1861;50.240;8.596;2023-06-22T01:38:51;11.00;;;5.18;;
3689;SDS011;1861;50.240;8.596;2023-06-22T01:41:20;7.80;;;5.35;;
3689;SDS011;1861;50.240;8.596;2023-06-22T01:43:53;10.70;;;5.22;;
3689;SDS011;1861;50.240;8.596;2023-06-22T01:46:22;6.85;;;4.88;;
3689;SDS011;1861;50.240;8.596;2023-06-22T01:48:51;7.72;;;5.18;;
3689;SDS011;1861;50.240;8.596;2023-06-22T01:51:21;5.97;;;4.78;;
3689;SDS011;1861;50.240;8.596;2023-06-22T01:53:49;12.50;;;5.55;;
3689;SDS011;1861;50.240;8.596;2023-06-22T01:56:18;8.82;;;5.93;;
3689;SDS011;1861;50.240;8.596;2023-06-22T01:58:48;7.15;;;5.22;;
3689;SDS011;1861;50.240;8.596;2023-06-22T02:01:24;8.20;;;5.90;;
3689;SDS011;1861;50.240;8.596;2023-06-22T02:03:57;9.27;;;4.43;;
3689;SDS011;1861;50.240;8.596;2023-06-22T02:06:33;10.60;;;5.40;;
3689;SDS011;1861;50.240;8.596;2023-06-22T02:09:06;7.88;;;5.40;;
3689;SDS011;1861;50.240;8.596;2023-06-22T02:11:39;7.50;;;5.13;;
3689;SDS011;1861;50.240;8.596;2023-06-22T02:14:09;7.88;;;5.88;;
3689;SDS011;1861;50.240;8.596;2023-06-22T02:16:41;7.20;;;5.32;;
3689;SDS011;1861;50.240;8.596;2023-06-22T02:19:10;8.45;;;5.47;;
3689;SDS011;1861;50.240;8.596;2023-06-22T02:21:38;7.47;;;5.03;;
3689;SDS011;1861;50.240;8.596;2023-06-22T02:24:06;9.05;;;6.10;;
3689;SDS011;1861;50.240;8.596;2023-06-22T02:26:34;7.85;;;5.93;;
3689;SDS011;1861;50.240;8.596;2023-06-22T02:29:04;7.63;;;5.95;;
3689;SDS011;1861;50.240;8.596;2023-06-22T02:31:33;10.15;;;6.82;;
3689;SDS011;1861;50.240;8.596;2023-06-22T02:34:03;7.93;;;6.40;;
3689;SDS011;1861;50.240;8.596;2023-06-22T02:36:31;7.70;;;6.57;;
3689;SDS011;1861;50.240;8.596;2023-06-22T02:39:00;7.22;;;5.78;;
3689;SDS011;1861;50.240;8.596;2023-06-22T02:41:30;10.32;;;6.72;;
3689;SDS011;1861;50.240;8.596;2023-06-22T02:43:58;15.27;;;9.70;;
3689;SDS011;1861;50.240;8.596;2023-06-22T02:46:26;11.25;;;7.28;;
3689;SDS011;1861;50.240;8.596;2023-06-22T02:48:55;13.32;;;7.15;;
3689;SDS011;1861;50.240;8.596;2023-06-22T02:51:24;10.98;;;6.47;;
3689;SDS011;1861;50.240;8.596;2023-06-22T02:53:52;11.07;;;7.30;;
3689;SDS011;1861;50.240;8.596;2023-06-22T02:56:25;10.20;;;6.82;;
3689;SDS011;1861;50.240;8.596;2023-06-22T02:58:58;8.15;;;6.45;;
3689;SDS011;1861;50.240;8.596;2023-06-22T03:01:32;10.65;;;6.53;;
3689;SDS011;1861;50.240;8.596;2023-06-22T03:04:15;7.53;;;6.10;;
3689;SDS011;1861;50.240;8.596;2023-06-22T03:06:45;8.68;;;6.28;;
3689;SDS011;1861;50.240;8.596;2023-06-22T03:09:17;13.20;;;6.55;;
3689;SDS011;1861;50.240;8.596;2023-06-22T03:11:46;9.93;;;6.88;;
3689;SDS011;1861;50.240;8.596;2023-06-22T03:14:14;10.50;;;6.97;;
3689;SDS011;1861;50.240;8.596;2023-06-22T03:16:42;7.53;;;6.30;;
3689;SDS011;1861;50.240;8.596;2023-06-22T03:19:11;9.73;;;6.53;;
3689;SDS011;1861;50.240;8.596;2023-06-22T03:21:40;13.63;;;6.70;;
3689;SDS011;1861;50.240;8.596;2023-06-22T03:24:10;10.02;;;7.00;;
3689;SDS011;1861;50.240;8.596;2023-06-22T03:26:38;10.27;;;6.43;;
3689;SDS011;1861;50.240;8.596;2023-06-22T03:29:06;7.03;;;5.63;;
3689;SDS011;1861;50.240;8.596;2023-06-22T03:31:34;9.55;;;6.35;;
3689;SDS011;1861;50.240;8.596;2023-06-22T03:34:04;8.55;;;6.20;;
3689;SDS011;1861;50.240;8.596;2023-06-22T03:36:32;9.07;;;6.40;;
3689;SDS011;1861;50.240;8.596;2023-06-22T03:39:01;8.88;;;6.63;;
3689;SDS011;1861;50.240;8.596;2023-06-22T03:41:31;8.55;;;6.40;;
3689;SDS011;1861;50.240;8.596;2023-06-22T03:43:59;10.10;;;6.32;;
3689;SDS011;1861;50.240;8.596;2023-06-22T03:46:27;10.95;;;6.22;;
3689;SDS011;1861;50.240;8.596;2023-06-22T03:48:55;9.52;;;5.72;;
3689;SDS011;1861;50.240;8.596;2023-06-22T03:51:23;7.22;;;6.10;;
3689;SDS011;1861;50.240;8.596;2023-06-22T03:53:51;15.20;;;7.30;;
3689;SDS011;1861;50.240;8.596;2023-06-22T03:56:20;9.55;;;6.45;;
3689;SDS011;1861;50.240;8.596;2023-06-22T03:58:49;9.93;;;6.60;;
3689;SDS011;1861;50.240;8.596;2023-06-22T04:01:17;9.45;;;6.90;;
3689;SDS011;1861;50.240;8.596;2023-06-22T04:03:46;10.75;;;6.20;;
3689;SDS011;1861;50.240;8.596;2023-06-22T04:06:16;8.45;;;6.22;;
3689;SDS011;1861;50.240;8.596;2023-06-22T04:08:44;10.52;;;6.65;;
3689;SDS011;1861;50.240;8.596;2023-06-22T04:11:17;9.50;;;7.00;;
3689;SDS011;1861;50.240;8.596;2023-06-22T04:13:45;9.02;;;6.88;;
3689;SDS011;1861;50.240;8.596;2023-06-22T04:16:16;9.27;;;6.60;;
3689;SDS011;1861;50.240;8.596;2023-06-22T04:18:44;8.25;;;6.45;;
3689;SDS011;1861;50.240;8.596;2023-06-22T04:21:13;8.35;;;6.80;;
3689;SDS011;1861;50.240;8.596;2023-06-22T04:23:41;8.30;;;6.30;;
3689;SDS011;1861;50.240;8.596;2023-06-22T04:26:10;8.15;;;6.25;;
3689;SDS011;1861;50.240;8.596;2023-06-22T04:28:38;10.70;;;7.05;;
3689;SDS011;1861;50.240;8.596;2023-06-22T04:31:07;7.57;;;6.25;;
3689;SDS011;1861;50.240;8.596;2023-06-22T04:33:36;8.77;;;6.70;;
3689;SDS011;1861;50.240;8.596;2023-06-22T04:36:07;8.20;;;6.47;;
3689;SDS011;1861;50.240;8.596;2023-06-22T04:38:35;11.30;;;6.32;;
3689;SDS011;1861;50.240;8.596;2023-06-22T04:41:03;15.43;;;6.80;;
3689;SDS011;1861;50.240;8.596;2023-06-22T04:43:33;10.20;;;6.88;;
3689;SDS011;1861;50.240;8.596;2023-06-22T04:46:01;10.25;;;7.38;;
3689;SDS011;1861;50.240;8.596;2023-06-22T04:48:30;9.82;;;6.95;;
3689;SDS011;1861;50.240;8.596;2023-06-22T04:51:01;11.70;;;6.32;;
3689;SDS011;1861;50.240;8.596;2023-06-22T04:53:31;9.60;;;6.65;;
3689;SDS011;1861;50.240;8.596;2023-06-22T04:55:59;9.20;;;6.82;;
3689;SDS011;1861;50.240;8.596;2023-06-22T04:58:30;10.68;;;6.90;;
3689;SDS011;1861;50.240;8.596;2023-06-22T05:00:59;7.78;;;6.50;;
3689;SDS011;1861;50.240;8.596;2023-06-22T05:03:27;10.65;;;7.10;;
3689;SDS011;1861;50.240;8.596;2023-06-22T05:05:55;8.85;;;6.63;;
3689;SDS011;1861;50.240;8.596;2023-06-22T05:08:25;9.52;;;6.95;;
3689;SDS011;1861;50.240;8.596;2023-06-22T05:10:55;11.52;;;7.18;;
3689;SDS011;1861;50.240;8.596;2023-06-22T05:13:31;13.27;;;7.05;;
3689;SDS011;1861;50.240;8.596;2023-06-22T05:16:00;10.73;;;6.43;;
3689;SDS011;1861;50.240;8.596;2023-06-22T05:18:29;8.50;;;6.60;;
3689;SDS011;1861;50.240;8.596;2023-06-22T05:20:58;10.30;;;7.07;;
3689;SDS011;1861;50.240;8.596;2023-06-22T05:23:28;7.95;;;6.22;;
3689;SDS011;1861;50.240;8.596;2023-06-22T05:25:56;12.43;;;7.72;;
3689;SDS011;1861;50.240;8.596;2023-06-22T05:29:01;9.13;;;6.38;;
3689;SDS011;1861;50.240;8.596;2023-06-22T05:32:06;12.38;;;6.43;;
3689;SDS011;1861;50.240;8.596;2023-06-22T05:35:11;7.65;;;6.40;;
3689;SDS011;1861;50.240;8.596;2023-06-22T05:37:39;8.75;;;6.05;;
3689;SDS011;1861;50.240;8.596;2023-06-22T05:40:11;10.57;;;6.75;;
3689;SDS011;1861;50.240;8.596;2023-06-22T05:42:39;9.35;;;6.80;;
3689;SDS011;1861;50.240;8.596;2023-06-22T05:45:08;9.23;;;6.63;;
3689;SDS011;1861;50.240;8.596;2023-06-22T05:47:36;8.73;;;6.15;;
3689;SDS011;1861;50.240;8.596;2023-06-22T05:50:05;12.88;;;5.85;;
3689;SDS011;1861;50.240;8.596;2023-06-22T05:52:38;8.80;;;6.57;;
3689;SDS011;1861;50.240;8.596;2023-06-22T05:55:07;12.05;;;6.82;;
3689;SDS011;1861;50.240;8.596;2023-06-22T05:57:37;10.25;;;6.50;;
3689;SDS011;1861;50.240;8.596;2023-06-22T06:00:05;12.35;;;6.40;;
3689;SDS011;1861;50.240;8.596;2023-06-22T06:02:37;8.52;;;5.85;;
3689;SDS011;1861;50.240;8.596;2023-06-22T06:05:10;8.50;;;6.25;;
3689;SDS011;1861;50.240;8.596;2023-06-22T06:07:40;10.57;;;6.05;;
3689;SDS011;1861;50.240;8.596;2023-06-22T06:10:08;10.27;;;6.60;;
3689;SDS011;1861;50.240;8.596;2023-06-22T06:12:38;8.35;;;6.35;;
3689;SDS011;1861;50.240;8.596;2023-06-22T06:15:06;9.55;;;6.32;;
3689;SDS011;1861;50.240;8.596;2023-06-22T06:17:44;9.10;;;6.35;;
3689;SDS011;1861;50.240;8.596;2023-06-22T06:20:13;8.85;;;6.20;;
3689;SDS011;1861;50.240;8.596;2023-06-22T06:22:41;14.27;;;7.53;;
3689;SDS011;1861;50.240;8.596;2023-06-22T06:25:10;9.25;;;6.85;;
3689;SDS011;1861;50.240;8.596;2023-06-22T06:27:43;8.73;;;6.30;;
3689;SDS011;1861;50.240;8.596;2023-06-22T06:30:13;9.15;;;6.40;;
3689;SDS011;1861;50.240;8.596;2023-06-22T06:32:42;10.40;;;7.35;;
3689;SDS011;1861;50.240;8.596;2023-06-22T06:35:12;8.95;;;6.70;;
3689;SDS011;1861;50.240;8.596;2023-06-22T06:37:43;15.02;;;7.63;;
3689;SDS011;1861;50.240;8.596;2023-06-22T06:40:12;11.13;;;6.78;;
3689;SDS011;1861;50.240;8.596;2023-06-22T06:42:42;9.35;;;6.78;;
3689;SDS011;1861;50.240;8.596;2023-06-22T06:45:12;10.25;;;6.18;;
3689;SDS011;1861;50.240;8.596;2023-06-22T06:47:42;8.90;;;6.35;;
3689;SDS011;1861;50.240;8.596;2023-06-22T06:50:11;13.45;;;6.90;;
3689;SDS011;1861;50.240;8.596;2023-06-22T06:52:40;9.38;;;6.97;;
3689;SDS011;1861;50.240;8.596;2023-06-22T06:55:08;7.57;;;5.97;;
3689;SDS011;1861;50.240;8.596;2023-06-22T06:57:58;10.45;;;6.78;;
3689;SDS011;1861;50.240;8.596;2023-06-22T07:00:45;9.02;;;6.57;;
3689;SDS011;1861;50.240;8.596;2023-06-22T07:03:32;8.60;;;6.65;;
3689;SDS011;1861;50.240;8.596;2023-06-22T07:06:19;12.00;;;6.65;;
3689;SDS011;1861;50.240;8.596;2023-06-22T07:09:05;11.13;;;6.68;;
3689;SDS011;1861;50.240;8.596;2023-06-22T07:11:52;9.77;;;7.00;;
3689;SDS011;1861;50.240;8.596;2023-06-22T07:14:40;9.15;;;6.82;;
3689;SDS011;1861;50.240;8.596;2023-06-22T07:17:27;9.95;;;6.70;;
3689;SDS011;1861;50.240;8.596;2023-06-22T07:20:14;10.48;;;7.20;;
3689;SDS011;1861;50.240;8.596;2023-06-22T07:23:01;8.70;;;6.70;;
3689;SDS011;1861;50.240;8.596;2023-06-22T07:25:48;10.20;;;6.90;;
3689;SDS011;1861;50.240;8.596;2023-06-22T07:28:35;8.93;;;6.80;;
3689;SDS011;1861;50.240;8.596;2023-06-22T07:31:25;11.05;;;7.45;;
3689;SDS011;1861;50.240;8.596;2023-06-22T07:34:12;12.10;;;6.05;;
3689;SDS011;1861;50.240;8.596;2023-06-22T07:36:59;10.02;;;7.47;;
3689;SDS011;1861;50.240;8.596;2023-06-22T07:39:46;7.95;;;6.07;;
3689;SDS011;1861;50.240;8.596;2023-06-22T07:42:32;8.45;;;6.22;;
3689;SDS011;1861;50.240;8.596;2023-06-22T07:45:19;11.13;;;6.78;;
3689;SDS011;1861;50.240;8.596;2023-06-22T07:48:07;9.60;;;7.00;;
3689;SDS011;1861;50.240;8.596;2023-06-22T07:50:54;10.57;;;7.60;;
3689;SDS011;1861;50.240;8.596;2023-06-22T07:53:41;13.18;;;6.95;;
3689;SDS011;1861;50.240;8.596;2023-06-22T07:56:28;12.57;;;7.30;;
3689;SDS011;1861;50.240;8.596;2023-06-22T07:59:15;11.18;;;7.05;;
3689;SDS011;1861;50.240;8.596;2023-06-22T08:02:02;9.52;;;5.95;;
3689;SDS011;1861;50.240;8.596;2023-06-22T08:04:50;10.52;;;7.05;;
3689;SDS011;1861;50.240;8.596;2023-06-22T08:07:44;9.57;;;6.47;;
3689;SDS011;1861;50.240;8.596;2023-06-22T08:10:33;8.10;;;6.28;;
3689;SDS011;1861;50.240;8.596;2023-06-22T08:13:19;9.63;;;6.45;;
3689;SDS011;1861;50.240;8.596;2023-06-22T08:16:06;9.95;;;7.28;;
3689;SDS011;1861;50.240;8.596;2023-06-22T08:18:53;13.90;;;7.45;;
3689;SDS011;1861;50.240;8.596;2023-06-22T08:21:41;9.38;;;6.35;;
3689;SDS011;1861;50.240;8.596;2023-06-22T08:24:28;11.75;;;7.93;;
3689;SDS011;1861;50.240;8.596;2023-06-22T08:27:15;9.73;;;7.35;;
3689;SDS011;1861;50.240;8.596;2023-06-22T08:30:04;8.95;;;6.82;;
3689;SDS011;1861;50.240;8.596;2023-06-22T08:32:52;10.60;;;8.00;;
3689;SDS011;1861;50.240;8.596;2023-06-22T08:35:40;11.77;;;7.90;;
3689;SDS011;1861;50.240;8.596;2023-06-22T08:38:28;9.70;;;6.20;;
3689;SDS011;1861;50.240;8.596;2023-06-22T08:41:14;8.32;;;6.80;;
3689;SDS011;1861;50.240;8.596;2023-06-22T08:44:01;11.68;;;7.55;;
3689;SDS011;1861;50.240;8.596;2023-06-22T08:46:49;11.75;;;7.55;;
3689;SDS011;1861;50.240;8.596;2023-06-22T08:49:36;11.75;;;7.72;;
3689;SDS011;1861;50.240;8.596;2023-06-22T08:52:23;11.13;;;7.70;;
3689;SDS011;1861;50.240;8.596;2023-06-22T08:55:12;10.85;;;7.05;;
3689;SDS011;1861;50.240;8.596;2023-06-22T08:57:59;8.77;;;6.80;;
3689;SDS011;1861;50.240;8.596;2023-06-22T09:00:46;10.98;;;6.32;;
3689;SDS011;1861;50.240;8.596;2023-06-22T09:03:32;12.55;;;7.85;;
3689;SDS011;1861;50.240;8.596;2023-06-22T09:06:21;11.35;;;7.93;;
3689;SDS011;1861;50.240;8.596;2023-06-22T09:09:09;9.82;;;6.82;;
3689;SDS011;1861;50.240;8.596;2023-06-22T09:11:57;11.90;;;8.27;;
3689;SDS011;1861;50.240;8.596;2023-06-22T09:14:43;9.75;;;7.60;;
3689;SDS011;1861;50.240;8.596;2023-06-22T09:17:30;12.43;;;7.72;;
3689;SDS011;1861;50.240;8.596;2023-06-22T09:20:17;13.45;;;7.68;;
3689;SDS011;1861;50.240;8.596;2023-06-22T09:23:04;11.95;;;7.85;;
3689;SDS011;1861;50.240;8.596;2023-06-22T09:25:51;8.32;;;6.93;;
3689;SDS011;1861;50.240;8.596;2023-06-22T09:28:39;10.70;;;6.45;;
3689;SDS011;1861;50.240;8.596;2023-06-22T09:31:26;9.70;;;7.90;;
3689;SDS011;1861;50.240;8.596;2023-06-22T09:34:12;10.75;;;7.82;;
3689;SDS011;1861;50.240;8.596;2023-06-22T09:36:59;10.13;;;7.78;;
3689;SDS011;1861;50.240;8.596;2023-06-22T09:39:46;10.10;;;7.25;;
3689;SDS011;1861;50.240;8.596;2023-06-22T09:42:33;9.60;;;7.45;;
3689;SDS011;1861;50.240;8.596;2023-06-22T09:45:21;11.73;;;8.73;;
3689;SDS011;1861;50.240;8.596;2023-06-22T09:48:08;11.13;;;7.70;;
3689;SDS011;1861;50.240;8.596;2023-06-22T09:50:55;9.23;;;6.93;;
3689;SDS011;1861;50.240;8.596;2023-06-22T09:53:42;9.55;;;6.88;;
3689;SDS011;1861;50.240;8.596;2023-06-22T09:56:29;10.63;;;6.97;;
3689;SDS011;1861;50.240;8.596;2023-06-22T09:59:16;13.90;;;8.13;;
3689;SDS011;1861;50.240;8.596;2023-06-22T10:02:05;13.82;;;8.73;;
3689;SDS011;1861;50.240;8.596;2023-06-22T10:04:52;9.13;;;7.20;;
3689;SDS011;1861;50.240;8.596;2023-06-22T10:07:39;11.85;;;8.18;;
3689;SDS011;1861;50.240;8.596;2023-06-22T10:10:28;7.78;;;6.72;;
3689;SDS011;1861;50.240;8.596;2023-06-22T10:13:14;14.65;;;7.40;;
3689;SDS011;1861;50.240;8.596;2023-06-22T10:16:01;8.13;;;7.13;;
3689;SDS011;1861;50.240;8.596;2023-06-22T10:18:50;9.93;;;7.03;;
3689;SDS011;1861;50.240;8.596;2023-06-22T10:21:36;11.55;;;7.68;;
3689;SDS011;1861;50.240;8.596;2023-06-22T10:24:23;12.30;;;7.38;;
3689;SDS011;1861;50.240;8.596;2023-06-22T10:27:10;8.40;;;7.22;;
3689;SDS011;1861;50.240;8.596;2023-06-22T10:29:57;8.35;;;7.10;;
3689;SDS011;1861;50.240;8.596;2023-06-22T10:32:44;9.63;;;7.15;;
3689;SDS011;1861;50.240;8.596;2023-06-22T10:35:32;10.23;;;7.15;;
3689;SDS011;1861;50.240;8.596;2023-06-22T10:38:18;8.75;;;6.72;;
3689;SDS011;1861;50.240;8.596;2023-06-22T10:41:06;11.63;;;7.88;;
3689;SDS011;1861;50.240;8.596;2023-06-22T10:43:52;10.38;;;7.47;;
3689;SDS011;1861;50.240;8.596;2023-06-22T10:46:39;9.10;;;7.22;;
3689;SDS011;1861;50.240;8.596;2023-06-22T10:49:25;10.55;;;7.38;;
3689;SDS011;1861;50.240;8.596;2023-06-22T10:52:13;7.75;;;6.22;;
3689;SDS011;1861;50.240;8.596;2023-06-22T10:55:00;8.10;;;5.97;;
3689;SDS011;1861;50.240;8.596;2023-06-22T10:57:47;9.02;;;7.05;;
3689;SDS011;1861;50.240;8.596;2023-06-22T11:00:34;9.27;;;6.00;;
3689;SDS011;1861;50.240;8.596;2023-06-22T11:03:22;9.82;;;6.65;;
3689;SDS011;1861;50.240;8.596;2023-06-22T11:06:08;7.65;;;6.00;;
3689;SDS011;1861;50.240;8.596;2023-06-22T11:08:56;6.25;;;5.45;;
3689;SDS011;1861;50.240;8.596;2023-06-22T11:12:01;8.18;;;5.75;;
3689;SDS011;1861;50.240;8.596;2023-06-22T11:14:49;6.65;;;5.15;;
3689;SDS011;1861;50.240;8.596;2023-06-22T11:17:37;8.00;;;5.80;;
3689;SDS011;1861;50.240;8.596;2023-06-22T11:20:23;6.57;;;5.30;;
3689;SDS011;1861;50.240;8.596;2023-06-22T11:23:10;6.68;;;5.30;;
3689;SDS011;1861;50.240;8.596;2023-06-22T11:25:59;8.13;;;5.78;;
3689;SDS011;1861;50.240;8.596;2023-06-22T11:28:45;8.38;;;6.10;;
3689;SDS011;1861;50.240;8.596;2023-06-22T11:31:33;7.43;;;5.95;;
3689;SDS011;1861;50.240;8.596;2023-06-22T11:34:20;8.40;;;6.15;;
3689;SDS011;1861;50.240;8.596;2023-06-22T11:37:06;6.82;;;5.97;;
3689;SDS011;1861;50.240;8.596;2023-06-22T11:39:53;8.65;;;6.10;;
3689;SDS011;1861;50.240;8.596;2023-06-22T11:42:52;8.30;;;6.03;;
3689;SDS011;1861;50.240;8.596;2023-06-22T11:45:39;9.10;;;5.50;;
3689;SDS011;1861;50.240;8.596;2023-06-22T11:48:26;8.02;;;5.45;;
3689;SDS011;1861;50.240;8.596;2023-06-22T11:50:54;6.68;;;5.28;;
3689;SDS011;1861;50.240;8.596;2023-06-22T11:53:26;12.88;;;5.68;;
3689;SDS011;1861;50.240;8.596;2023-06-22T11:55:54;9.60;;;6.50;;
3689;SDS011;1861;50.240;8.596;2023-06-22T11:58:24;8.63;;;5.85;;
3689;SDS011;1861;50.240;8.596;2023-06-22T12:00:53;6.50;;;5.57;;
3689;SDS011;1861;50.240;8.596;2023-06-22T12:03:21;10.77;;;5.65;;
3689;SDS011;1861;50.240;8.596;2023-06-22T12:05:50;8.63;;;6.10;;
3689;SDS011;1861;50.240;8.596;2023-06-22T12:08:18;9.55;;;6.25;;
3689;SDS011;1861;50.240;8.596;2023-06-22T12:10:46;8.35;;;5.78;;
3689;SDS011;1861;50.240;8.596;2023-06-22T12:13:15;11.18;;;5.93;;
3689;SDS011;1861;50.240;8.596;2023-06-22T12:15:44;10.85;;;7.22;;
3689;SDS011;1861;50.240;8.596;2023-06-22T12:18:12;9.45;;;6.88;;
3689;SDS011;1861;50.240;8.596;2023-06-22T12:20:41;8.18;;;5.97;;
3689;SDS011;1861;50.240;8.596;2023-06-22T12:23:09;10.25;;;6.28;;
3689;SDS011;1861;50.240;8.596;2023-06-22T12:25:38;8.43;;;5.97;;
3689;SDS011;1861;50.240;8.596;2023-06-22T12:28:06;8.82;;;6.32;;
3689;SDS011;1861;50.240;8.596;2023-06-22T12:30:34;8.65;;;6.55;;
3689;SDS011;1861;50.240;8.596;2023-06-22T12:33:04;8.32;;;6.07;;
3689;SDS011;1861;50.240;8.596;2023-06-22T12:35:33;7.40;;;5.47;;
3689;SDS011;1861;50.240;8.596;2023-06-22T12:38:01;7.50;;;5.70;;
3689;SDS011;1861;50.240;8.596;2023-06-22T12:40:32;8.77;;;6.35;;
3689;SDS011;1861;50.240;8.596;2023-06-22T12:43:00;13.32;;;6.55;;
3689;SDS011;1861;50.240;8.596;2023-06-22T12:45:29;7.72;;;5.90;;
3689;SDS011;1861;50.240;8.596;2023-06-22T12:47:59;7.30;;;5.82;;
3689;SDS011;1861;50.240;8.596;2023-06-22T12:50:29;6.25;;;5.28;;
3689;SDS011;1861;50.240;8.596;2023-06-22T12:52:58;9.40;;;6.03;;
3689;SDS011;1861;50.240;8.596;2023-06-22T12:55:28;9.07;;;6.13;;
3689;SDS011;1861;50.240;8.596;2023-06-22T12:57:56;8.38;;;4.90;;
3689;SDS011;1861;50.240;8.596;2023-06-22T13:00:24;7.05;;;5.10;;
3689;SDS011;1861;50.240;8.596;2023-06-22T13:02:53;13.30;;;4.82;;
3689;SDS011;1861;50.240;8.596;2023-06-22T13:05:22;5.88;;;4.78;;
3689;SDS011;1861;50.240;8.596;2023-06-22T13:07:52;9.70;;;6.13;;
3689;SDS011;1861;50.240;8.596;2023-06-22T13:10:21;5.95;;;5.35;;
3689;SDS011;1861;50.240;8.596;2023-06-22T13:12:49;6.78;;;4.68;;
3689;SDS011;1861;50.240;8.596;2023-06-22T13:15:18;5.97;;;5.10;;
3689;SDS011;1861;50.240;8.596;2023-06-22T13:17:46;8.55;;;5.40;;
3689;SDS011;1861;50.240;8.596;2023-06-22T13:20:15;7.57;;;5.38;;
3689;SDS011;1861;50.240;8.596;2023-06-22T13:22:43;8.60;;;4.97;;
3689;SDS011;1861;50.240;8.596;2023-06-22T13:25:12;6.18;;;5.18;;
3689;SDS011;1861;50.240;8.596;2023-06-22T13:27:45;5.60;;;4.55;;
3689;SDS011;1861;50.240;8.596;2023-06-22T13:30:32;5.47;;;4.95;;
3689;SDS011;1861;50.240;8.596;2023-06-22T13:33:37;6.13;;;4.18;;
3689;SDS011;1861;50.240;8.596;2023-06-22T13:36:43;6.32;;;4.80;;
3689;SDS011;1861;50.240;8.596;2023-06-22T13:39:48;6.25;;;4.85;;
3689;SDS011;1861;50.240;8.596;2023-06-22T13:42:54;8.98;;;4.45;;
3689;SDS011;1861;50.240;8.596;2023-06-22T13:45:59;4.85;;;4.25;;
3689;SDS011;1861;50.240;8.596;2023-06-22T13:49:04;6.47;;;4.35;;
3689;SDS011;1861;50.240;8.596;2023-06-22T13:52:08;5.18;;;4.22;;
3689;SDS011;1861;50.240;8.596;2023-06-22T13:54:39;4.57;;;4.05;;
3689;SDS011;1861;50.240;8.596;2023-06-22T13:57:07;4.90;;;4.40;;
3689;SDS011;1861;50.240;8.596;2023-06-22T13:59:36;5.63;;;4.85;;
3689;SDS011;1861;50.240;8.596;2023-06-22T14:02:05;4.93;;;4.40;;
3689;SDS011;1861;50.240;8.596;2023-06-22T14:04:33;6.65;;;4.88;;
3689;SDS011;1861;50.240;8.596;2023-06-22T14:07:01;5.57;;;4.22;;
3689;SDS011;1861;50.240;8.596;2023-06-22T14:09:30;6.18;;;4.05;;
3689;SDS011;1861;50.240;8.596;2023-06-22T14:11:59;5.28;;;4.43;;
3689;SDS011;1861;50.240;8.596;2023-06-22T14:14:30;7.70;;;5.30;;
3689;SDS011;1861;50.240;8.596;2023-06-22T14:17:00;11.55;;;5.25;;
3689;SDS011;1861;50.240;8.596;2023-06-22T14:19:28;11.27;;;5.93;;
3689;SDS011;1861;50.240;8.596;2023-06-22T14:21:56;7.22;;;4.50;;
3689;SDS011;1861;50.240;8.596;2023-06-22T14:24:24;6.63;;;4.88;;
3689;SDS011;1861;50.240;8.596;2023-06-22T14:26:56;7.72;;;5.10;;
3689;SDS011;1861;50.240;8.596;2023-06-22T14:29:25;6.38;;;4.72;;
3689;SDS011;1861;50.240;8.596;2023-06-22T14:31:53;7.68;;;4.65;;
3689;SDS011;1861;50.240;8.596;2023-06-22T14:34:22;6.78;;;4.57;;
3689;SDS011;1861;50.240;8.596;2023-06-22T14:36:50;6.18;;;4.95;;
3689;SDS011;1861;50.240;8.596;2023-06-22T14:39:19;5.78;;;4.72;;
3689;SDS011;1861;50.240;8.596;2023-06-22T14:41:48;8.68;;;4.97;;
3689;SDS011;1861;50.240;8.596;2023-06-22T14:44:16;7.15;;;4.57;;
3689;SDS011;1861;50.240;8.596;2023-06-22T14:46:44;14.10;;;5.20;;
3689;SDS011;1861;50.240;8.596;2023-06-22T14:49:12;9.05;;;5.30;;
3689;SDS011;1861;50.240;8.596;2023-06-22T14:51:42;8.48;;;5.45;;
3689;SDS011;1861;50.240;8.596;2023-06-22T14:54:10;7.38;;;5.15;;
3689;SDS011;1861;50.240;8.596;2023-06-22T14:56:38;7.68;;;4.45;;
3689;SDS011;1861;50.240;8.596;2023-06-22T14:59:06;7.70;;;5.28;;
3689;SDS011;1861;50.240;8.596;2023-06-22T15:01:35;7.30;;;4.90;;
3689;SDS011;1861;50.240;8.596;2023-06-22T15:04:07;6.68;;;5.13;;
3689;SDS011;1861;50.240;8.596;2023-06-22T15:06:35;4.53;;;3.95;;
3689;SDS011;1861;50.240;8.596;2023-06-22T15:09:04;5.82;;;4.38;;
3689;SDS011;1861;50.240;8.596;2023-06-22T15:11:32;5.93;;;4.40;;
3689;SDS011;1861;50.240;8.596;2023-06-22T15:14:01;5.40;;;3.92;;
3689;SDS011;1861;50.240;8.596;2023-06-22T15:16:29;6.07;;;3.97;;
3689;SDS011;1861;50.240;8.596;2023-06-22T15:18:57;5.15;;;3.92;;
3689;SDS011;1861;50.240;8.596;2023-06-22T15:21:25;12.43;;;4.40;;
3689;SDS011;1861;50.240;8.596;2023-06-22T15:23:54;5.55;;;3.72;;
3689;SDS011;1861;50.240;8.596;2023-06-22T15:26:23;7.00;;;3.80;;
3689;SDS011;1861;50.240;8.596;2023-06-22T15:28:51;4.90;;;4.05;;
3689;SDS011;1861;50.240;8.596;2023-06-22T15:31:19;7.93;;;4.13;;
3689;SDS011;1861;50.240;8.596;2023-06-22T15:33:48;7.68;;;4.47;;
3689;SDS011;1861;50.240;8.596;2023-06-22T15:36:16;8.15;;;4.63;;
3689;SDS011;1861;50.240;8.596;2023-06-22T15:38:44;10.90;;;4.45;;
3689;SDS011;1861;50.240;8.596;2023-06-22T15:41:13;20.95;;;6.90;;
3689;SDS011;1861;50.240;8.596;2023-06-22T15:43:43;29.25;;;8.35;;
3689;SDS011;1861;50.240;8.596;2023-06-22T15:46:11;12.68;;;5.80;;
3689;SDS011;1861;50.240;8.596;2023-06-22T15:48:39;12.35;;;5.32;;
3689;SDS011;1861;50.240;8.596;2023-06-22T15:51:07;12.63;;;5.28;;
3689;SDS011;1861;50.240;8.596;2023-06-22T15:53:35;19.30;;;5.68;;
3689;SDS011;1861;50.240;8.596;2023-06-22T15:56:04;16.58;;;5.75;;
3689;SDS011;1861;50.240;8.596;2023-06-22T15:58:35;14.43;;;6.38;;
3689;SDS011;1861;50.240;8.596;2023-06-22T16:01:06;9.32;;;5.20;;